createdAt,value
2023-04-10T03:52:01.399Z,38.78
2023-04-10T03:53:36.275Z,41.75
2023-04-10T04:55:37.777Z,45.88
2023-04-10T05:00:56.930Z,35.13
2023-04-10T05:02:06.826Z,43.40
2023-04-10T05:03:29.391Z,39.42
2023-04-10T05:04:59.016Z,43.80
2023-04-10T05:06:16.530Z,38.50
2023-04-10T05:07:29.852Z,39.90
2023-04-10T05:08:55.472Z,32.90
2023-04-10T05:10:18.172Z,35.35
2023-04-10T05:11:43.370Z,35.03
2023-04-10T05:13:17.471Z,38.22
2023-04-10T05:14:30.424Z,31.27
2023-04-10T05:15:46.117Z,35.95
2023-04-10T05:17:08.278Z,45.10
2023-04-10T05:18:37.235Z,43.72
2023-04-10T05:19:59.445Z,37.42
2023-04-10T05:21:32.844Z,36.58
2023-04-10T05:22:43.983Z,46.75
2023-04-10T05:24:20.026Z,41.35
2023-04-10T05:25:53.870Z,38.15
2023-04-10T05:27:12.025Z,39.50
2023-04-10T05:28:42.213Z,34.53
2023-04-10T05:30:06.939Z,34.75
2023-04-10T05:31:16.693Z,40.60
2023-04-10T05:33:07.089Z,35.55
2023-04-10T05:34:17.609Z,30.73
2023-04-10T05:35:38.079Z,37.65
2023-04-10T05:37:13.093Z,38.83
2023-04-10T05:38:38.479Z,40.28
2023-04-10T05:40:08.392Z,30.60
2023-04-10T05:41:25.252Z,34.90
2023-04-10T05:43:02.259Z,34.58
2023-04-10T05:44:10.769Z,32.28
2023-04-10T05:45:34.294Z,31.80
2023-04-10T05:46:50.497Z,28.38
2023-04-10T05:48:18.947Z,30.85
2023-04-10T05:49:51.098Z,33.67
2023-04-10T05:50:52.982Z,24.70
2023-04-10T05:52:09.535Z,31.75
2023-04-10T05:53:33.100Z,31.33
2023-04-10T05:54:53.375Z,30.42
2023-04-10T05:56:07.817Z,28.63
2023-04-10T05:57:18.230Z,32.63
2023-04-10T05:58:32.220Z,27.33
2023-04-10T05:59:49.336Z,30.48
2023-04-10T06:01:14.992Z,31.77
2023-04-10T06:02:29.486Z,31.70
2023-04-10T06:03:31.880Z,27.83
2023-04-10T06:04:36.819Z,38.45
2023-04-10T06:05:38.940Z,35.08
2023-04-10T06:06:42.633Z,32.53
2023-04-10T06:07:46.038Z,34.67
2023-04-10T06:08:50.968Z,33.78
2023-04-10T06:09:52.826Z,35.50
2023-04-10T06:10:54.772Z,38.38
2023-04-10T06:11:56.834Z,34.13
2023-04-10T06:13:00.931Z,31.00
2023-04-10T06:14:03.105Z,34.42
2023-04-10T06:15:11.798Z,30.88
2023-04-10T06:16:15.488Z,38.97
2023-04-10T06:17:21.280Z,33.58
2023-04-10T06:18:29.157Z,34.30
2023-04-10T06:19:31.830Z,35.07
2023-04-10T06:20:36.800Z,36.35
2023-04-10T06:21:38.732Z,41.60
2023-04-10T06:22:41.705Z,35.35
2023-04-10T06:23:44.029Z,32.83
2023-04-10T06:24:47.426Z,47.30
2023-04-10T06:25:49.525Z,37.25
2023-04-10T06:26:54.772Z,32.53
2023-04-10T06:27:57.513Z,33.67
2023-04-10T06:29:00.540Z,33.47
2023-04-10T06:30:03.867Z,33.55
2023-04-10T06:31:08.886Z,32.88
2023-04-10T06:32:12.445Z,35.33
2023-04-10T06:33:16.350Z,30.55
2023-04-10T06:34:19.974Z,34.17
2023-04-10T06:35:31.836Z,34.80
2023-04-10T06:36:33.789Z,31.80
2023-04-10T06:37:39.079Z,34.40
2023-04-10T06:38:40.993Z,37.25
2023-04-10T06:39:42.866Z,34.28
2023-04-10T06:40:44.736Z,33.92
2023-04-10T06:41:46.554Z,37.22
2023-04-10T06:42:59.760Z,33.08
2023-04-10T06:44:19.204Z,35.17
2023-04-10T06:45:21.693Z,36.45
2023-04-10T06:46:23.624Z,36.28
2023-04-10T06:47:25.685Z,36.40
2023-04-10T06:48:28.592Z,31.50
2023-04-10T06:49:31.013Z,35.70
2023-04-10T06:50:33.491Z,36.13
2023-04-10T06:51:35.869Z,38.67
2023-04-10T06:52:38.154Z,33.33
2023-04-10T06:53:39.989Z,30.92
2023-04-10T06:54:41.911Z,34.83
2023-04-10T06:55:43.655Z,28.05
2023-04-10T06:56:45.466Z,34.13
2023-04-10T06:57:47.816Z,38.55
2023-04-10T06:58:49.663Z,34.90
2023-04-10T06:59:51.590Z,32.63
2023-04-10T07:00:54.651Z,32.80
2023-04-10T07:01:56.592Z,35.65
2023-04-10T07:02:58.832Z,32.22
2023-04-10T07:04:00.971Z,32.35
2023-04-10T07:05:03.234Z,35.85
2023-04-10T07:06:06.793Z,34.88
2023-04-10T07:07:13.015Z,32.90
2023-04-10T07:08:16.995Z,35.60
2023-04-10T07:09:26.464Z,36.90
2023-04-10T07:10:28.586Z,34.38
2023-04-10T07:11:30.436Z,34.38
2023-04-10T07:12:33.707Z,39.42
2023-04-10T07:13:41.359Z,35.13
2023-04-10T07:14:45.451Z,39.60
2023-04-10T07:17:03.296Z,39.10
2023-04-10T07:18:07.625Z,39.47
2023-04-10T07:19:09.642Z,38.72
2023-04-10T07:20:11.948Z,33.53
2023-04-10T07:21:13.893Z,39.63
2023-04-10T07:22:16.001Z,33.42
2023-04-10T07:23:20.521Z,34.17
2023-04-10T07:24:22.629Z,39.13
2023-04-10T07:25:24.451Z,34.92
2023-04-10T07:26:26.280Z,36.15
2023-04-10T07:27:28.366Z,32.47
2023-04-10T07:28:30.354Z,39.80
2023-04-10T07:29:32.302Z,34.53
2023-04-10T07:30:34.224Z,29.65
2023-04-10T07:31:36.399Z,29.70
2023-04-10T07:32:40.057Z,31.00
2023-04-10T07:33:42.287Z,33.08
2023-04-10T07:34:44.813Z,33.05
2023-04-10T07:35:46.668Z,34.10
2023-04-10T07:36:48.448Z,27.63
2023-04-10T07:37:52.582Z,32.25
2023-04-10T07:38:55.665Z,30.55
2023-04-10T07:39:57.660Z,31.70
2023-04-10T07:40:59.805Z,33.05
2023-04-10T07:42:01.971Z,29.33
2023-04-10T07:43:04.143Z,31.63
2023-04-10T07:44:06.308Z,39.75
2023-04-10T07:45:08.816Z,33.97
2023-04-10T07:46:11.279Z,33.45
2023-04-10T07:47:13.152Z,25.92
2023-04-10T07:48:16.221Z,27.83
2023-04-10T07:49:18.553Z,27.90
2023-04-10T07:50:20.492Z,27.90
2023-04-10T07:51:22.787Z,28.60
2023-04-10T07:52:24.850Z,29.20
2023-04-10T07:53:28.242Z,28.30
2023-04-10T07:54:34.436Z,27.75
2023-04-10T07:55:40.448Z,26.55
2023-04-10T07:56:42.695Z,25.42
2023-04-10T07:57:44.888Z,26.33
2023-04-10T07:58:49.999Z,28.63
2023-04-10T07:59:53.322Z,25.38
2023-04-10T08:00:55.777Z,26.83
2023-04-10T08:02:00.561Z,24.77
2023-04-10T08:03:56.488Z,21.33
2023-04-10T08:04:58.870Z,24.08
2023-04-10T08:06:01.232Z,28.17
2023-04-10T08:07:03.357Z,34.20
2023-04-10T08:08:05.808Z,26.52
2023-04-10T08:09:07.787Z,26.55
2023-04-10T08:10:16.449Z,34.20
2023-04-10T08:11:47.286Z,25.15
2023-04-10T08:12:49.544Z,23.00
2023-04-10T08:13:55.370Z,24.42
2023-04-10T08:14:57.786Z,32.65
2023-04-10T08:16:00.561Z,24.85
2023-04-10T08:19:49.285Z,20.45
2023-04-10T08:20:51.345Z,21.65
2023-04-10T08:21:53.751Z,22.83
2023-04-10T08:31:48.905Z,23.33
2023-04-10T08:32:52.457Z,24.23
2023-04-10T08:36:31.901Z,26.10
2023-04-10T08:37:34.038Z,28.40
2023-04-10T08:38:36.102Z,25.52
2023-04-10T08:39:39.162Z,27.80
2023-04-10T08:44:21.192Z,39.38
2023-04-10T08:45:23.134Z,28.10
2023-04-10T08:46:26.499Z,29.88
2023-04-10T08:47:29.946Z,24.70
2023-04-10T08:49:00.927Z,29.95
2023-04-10T08:50:07.259Z,26.73
2023-04-10T08:51:19.995Z,20.23
2023-04-10T08:52:25.785Z,23.67
2023-04-10T08:53:31.872Z,22.58
2023-04-10T08:54:36.021Z,24.65
2023-04-10T08:55:41.189Z,28.05
2023-04-10T08:56:49.822Z,25.63
2023-04-10T08:58:00.621Z,22.85
2023-04-10T08:59:05.815Z,21.98
2023-04-10T09:02:31.563Z,26.75
2023-04-10T09:03:34.530Z,28.23
2023-04-10T09:04:36.877Z,33.85
2023-04-10T09:05:39.498Z,32.88
2023-04-10T09:06:42.736Z,33.97
2023-04-10T09:07:45.567Z,29.65
2023-04-10T09:10:04.064Z,26.85
2023-04-10T09:11:08.080Z,26.13
2023-04-10T09:12:12.111Z,28.30
2023-04-10T09:13:36.691Z,26.25
2023-04-10T09:14:38.827Z,25.30
2023-04-10T09:16:00.557Z,32.53
2023-04-10T09:17:36.806Z,28.05
2023-04-10T09:36:35.222Z,26.10
2023-04-10T09:48:11.953Z,29.85
2023-04-10T09:49:14.663Z,35.80
2023-04-10T09:50:16.895Z,30.70
2023-04-10T09:53:51.738Z,28.38
2023-04-10T09:55:00.393Z,33.00
2023-04-10T09:56:05.489Z,26.25
2023-04-10T09:57:14.309Z,27.38
2023-04-10T10:06:01.780Z,27.40
2023-04-10T10:07:14.129Z,31.40
2023-04-10T10:08:17.189Z,27.45
2023-04-10T10:09:38.914Z,27.17
2023-04-10T10:11:10.597Z,31.38
2023-04-10T10:12:21.825Z,29.55
2023-04-10T10:14:01.726Z,30.17
2023-04-10T10:19:43.113Z,30.40
2023-04-10T10:20:48.606Z,26.83
2023-04-10T10:21:54.655Z,30.10
2023-04-10T10:22:58.725Z,30.75
2023-04-10T10:24:03.549Z,26.08
2023-04-10T10:25:07.057Z,32.33
2023-04-10T10:26:10.513Z,27.67
2023-04-10T10:27:26.485Z,23.85
2023-04-10T10:28:31.694Z,23.60
2023-04-10T10:34:22.960Z,33.45
2023-04-10T10:35:39.697Z,28.15
2023-04-10T10:37:18.994Z,28.23
2023-04-10T10:44:57.548Z,25.95
2023-04-10T10:46:27.944Z,27.40
2023-04-10T12:04:21.519Z,23.42
2023-04-10T12:05:27.935Z,22.80
2023-04-10T12:06:31.888Z,32.13
2023-04-10T12:13:35.452Z,31.25
2023-04-10T12:34:49.946Z,27.48
2023-04-10T12:46:20.390Z,34.65
2023-04-10T12:52:31.248Z,26.00
2023-04-10T13:00:37.569Z,30.80
2023-04-10T14:07:02.785Z,32.33
2023-04-10T14:08:07.191Z,34.80
2023-04-10T14:12:37.882Z,33.97
2023-04-10T14:13:41.998Z,37.53
2023-04-10T14:18:37.532Z,33.72
2023-04-10T14:23:28.145Z,34.47
2023-04-10T14:27:52.342Z,35.40
2023-04-10T14:29:01.346Z,33.85
2023-04-10T14:47:45.362Z,38.50
2023-04-10T14:49:09.463Z,37.92
2023-04-10T14:50:44.181Z,33.85
2023-04-10T14:57:17.351Z,35.22
2023-04-10T15:21:01.950Z,35.35
2023-04-10T15:43:15.199Z,60.30
2023-04-10T15:48:40.518Z,38.00
2023-04-10T15:50:26.031Z,45.83
2023-04-10T15:52:55.218Z,35.60
2023-04-10T15:55:42.425Z,74.80
2023-04-10T15:59:00.031Z,83.07
2023-04-10T16:01:06.491Z,60.67
2023-04-10T16:03:23.559Z,38.53
2023-04-10T16:04:39.870Z,65.20
2023-04-10T16:07:25.349Z,45.75
2023-04-10T16:12:25.687Z,43.67
2023-04-10T16:13:50.538Z,49.47
2023-04-10T16:19:27.881Z,35.55
2023-04-10T16:25:06.149Z,43.30
2023-04-10T16:26:40.176Z,43.08
2023-04-10T16:28:07.246Z,44.10
2023-04-10T16:33:54.461Z,43.55
2023-04-10T16:50:23.534Z,36.75
2023-04-10T16:51:29.982Z,37.00
2023-04-10T16:58:35.509Z,31.98
2023-04-10T17:00:23.099Z,26.45
2023-04-10T17:01:44.423Z,28.83
2023-04-10T17:02:59.576Z,34.92
2023-04-10T17:04:23.073Z,30.20
2023-04-10T17:10:01.726Z,41.53
2023-04-10T17:11:43.910Z,39.75
2023-04-10T17:16:25.795Z,37.50
2023-04-10T17:17:49.281Z,31.40
2023-04-10T17:19:01.077Z,31.33
2023-04-10T17:29:15.001Z,55.03
2023-04-10T17:30:51.629Z,52.53
2023-04-10T17:32:18.061Z,51.80
2023-04-10T17:33:26.351Z,43.33
2023-04-10T17:34:54.951Z,49.60
2023-04-10T17:36:16.310Z,42.65
2023-04-10T17:37:25.667Z,39.53
2023-04-10T17:38:32.273Z,45.70
2023-04-10T21:12:52.182Z,66.72
